PWSweather.com
Personal Weather Stations
Station Observations
IROGLAN40
AalgaardNO 4330

AalgaardNO 4330

Lat: 58.773, Lon: 5.846

Elevation: 326

Station Type: Davis Vanatge Pro2

Latest ConditionsUpdated 6:30:02 AM GMT+01:01 Monday, Apr 27, 2015
Currently Today's Max Today's Min Today's Average
Temperature 34.3°F1.3°C 34.4°F1.3°C 31.8°F-0.1°C 33.0°F0.6°C
Dew Point 31.9°F-0.1°C 31.9°F-0.1°C 29.4°F-1.4°C 30.3°F-0.9°C
Winds 1.8 mph SSE2.9 kmh SSE 2.8 mph SSE4.5 kmh SSE - 0.3 mph 0.5 kmh
Wind Gusts 4.0 mph6.4 kmh 4.0 mph6.4 kmh - -
Humidity 91% 91% 87% 90%
Pressure 29.60 in1002.4 mb 29.67 in1004.7 mb 29.60 in1002.4 mb -
Hour Temp Dew Point Humidity Winds Wind Gusts Pressure Precip Precip Rate Daily Precip Total
06:30 AM 34.3°F1.3°C 31.9°F-0.1°C 91% 1.8 mph SSE2.9 kmh SSE 4.0 mph6.4 kmh 29.60 in1002.4 mb - 0.00 in0.0 mm 0.00 in0.0 mm
06:20 AM 33.9°F1.1°C 31.5°F-0.3°C 91% 2.5 mph SSE4.0 kmh SSE 3.0 mph4.8 kmh 29.60 in1002.4 mb - 0.00 in0.0 mm 0.00 in0.0 mm
06:10 AM 33.6°F0.9°C 31.2°F-0.4°C 91% 1.6 mph SE2.6 kmh SE 2.0 mph3.2 kmh 29.61 in1002.7 mb - 0.00 in0.0 mm 0.00 in0.0 mm
06:00 AM 33.2°F0.7°C 30.8°F-0.7°C 91% 1.7 mph SSE2.7 kmh SSE 3.0 mph4.8 kmh 29.61 in1002.7 mb - 0.00 in0.0 mm 0.00 in0.0 mm
05:50 AM 32.9°F0.5°C 30.6°F-0.8°C 91% 0.6 mph SSE1.0 kmh SSE 2.0 mph3.2 kmh 29.61 in1002.7 mb - 0.00 in0.0 mm 0.00 in0.0 mm
05:40 AM 32.6°F0.3°C 30.3°F-0.9°C 91% 2.8 mph SSE4.5 kmh SSE 4.0 mph6.4 kmh 29.61 in1002.7 mb - 0.00 in0.0 mm 0.00 in0.0 mm
05:30 AM 32.0°F0.0°C 29.7°F-1.3°C 91% 0.7 mph NW1.1 kmh NW 2.0 mph3.2 kmh 29.61 in1002.7 mb - 0.00 in0.0 mm 0.00 in0.0 mm
05:20 AM 32.0°F0.0°C 29.7°F-1.3°C 91% 1.1 mph NW1.8 kmh NW 2.0 mph3.2 kmh 29.61 in1002.7 mb - 0.00 in0.0 mm 0.00 in0.0 mm
05:10 AM 31.9°F-0.1°C 29.6°F-1.3°C 91% 0.4 mph NW0.6 kmh NW 2.0 mph3.2 kmh 29.61 in1002.7 mb - 0.00 in0.0 mm 0.00 in0.0 mm
05:00 AM 31.8°F-0.1°C 29.5°F-1.4°C 91% Calm Calm -- 29.62 in1003.0 mb - 0.00 in0.0 mm 0.00 in0.0 mm
04:50 AM 31.8°F-0.1°C 29.4°F-1.4°C 91% Calm Calm -- 29.62 in1003.0 mb - 0.00 in0.0 mm 0.00 in0.0 mm
04:40 AM 32.1°F0.1°C 29.8°F-1.2°C 91% 0.2 mph NW0.3 kmh NW 1.0 mph1.6 kmh 29.62 in1003.0 mb - 0.00 in0.0 mm 0.00 in0.0 mm
04:30 AM 32.2°F0.1°C 29.9°F-1.2°C 91% 0.4 mph NW0.6 kmh NW 2.0 mph3.2 kmh 29.62 in1003.0 mb - 0.00 in0.0 mm 0.00 in0.0 mm
04:20 AM 32.1°F0.1°C 29.5°F-1.4°C 90% Calm Calm -- 29.62 in1003.0 mb - 0.00 in0.0 mm 0.00 in0.0 mm
04:10 AM 32.4°F0.2°C 30.1°F-1.1°C 91% Calm Calm -- 29.63 in1003.4 mb - 0.00 in0.0 mm 0.00 in0.0 mm
04:00 AM 32.0°F0.0°C 29.7°F-1.3°C 91% Calm Calm -- 29.63 in1003.4 mb - 0.00 in0.0 mm 0.00 in0.0 mm
03:50 AM 32.0°F0.0°C 29.4°F-1.4°C 90% Calm Calm -- 29.63 in1003.4 mb - 0.00 in0.0 mm 0.00 in0.0 mm
03:41 AM 32.1°F0.1°C 29.5°F-1.4°C 90% Calm Calm -- 29.63 in1003.4 mb - 0.00 in0.0 mm 0.00 in0.0 mm
03:30 AM 32.4°F0.2°C 29.8°F-1.2°C 90% Calm Calm -- 29.63 in1003.4 mb - 0.00 in0.0 mm 0.00 in0.0 mm
03:20 AM 32.6°F0.3°C 30.0°F-1.1°C 90% Calm Calm -- 29.63 in1003.4 mb - 0.00 in0.0 mm 0.00 in0.0 mm
03:10 AM 32.8°F0.4°C 30.2°F-1.0°C 90% Calm Calm -- 29.64 in1003.7 mb - 0.00 in0.0 mm 0.00 in0.0 mm
03:00 AM 32.8°F0.4°C 30.2°F-1.0°C 90% Calm Calm -- 29.64 in1003.7 mb - 0.00 in0.0 mm 0.00 in0.0 mm
02:50 AM 33.0°F0.6°C 30.4°F-0.9°C 90% Calm Calm -- 29.64 in1003.7 mb - 0.00 in0.0 mm 0.00 in0.0 mm
02:40 AM 33.0°F0.6°C 30.4°F-0.9°C 90% Calm Calm -- 29.64 in1003.7 mb - 0.00 in0.0 mm 0.00 in0.0 mm
02:30 AM 33.2°F0.7°C 30.6°F-0.8°C 90% Calm Calm -- 29.64 in1003.7 mb - 0.00 in0.0 mm 0.00 in0.0 mm
02:20 AM 33.2°F0.7°C 30.6°F-0.8°C 90% Calm Calm -- 29.65 in1004.1 mb - 0.00 in0.0 mm 0.00 in0.0 mm
02:10 AM 33.3°F0.7°C 30.7°F-0.7°C 90% Calm Calm -- 29.65 in1004.1 mb - 0.00 in0.0 mm 0.00 in0.0 mm
02:00 AM 33.1°F0.6°C 30.2°F-1.0°C 89% Calm Calm -- 29.65 in1004.1 mb - 0.00 in0.0 mm 0.00 in0.0 mm
01:50 AM 33.3°F0.7°C 30.4°F-0.9°C 89% Calm Calm -- 29.65 in1004.1 mb - 0.00 in0.0 mm 0.00 in0.0 mm
01:40 AM 33.5°F0.8°C 30.6°F-0.8°C 89% Calm Calm -- 29.65 in1004.1 mb - 0.00 in0.0 mm 0.00 in0.0 mm
01:30 AM 33.7°F0.9°C 30.8°F-0.7°C 89% Calm Calm -- 29.66 in1004.4 mb - 0.00 in0.0 mm 0.00 in0.0 mm
01:20 AM 33.8°F1.0°C 30.9°F-0.6°C 89% Calm Calm -- 29.66 in1004.4 mb - 0.00 in0.0 mm 0.00 in0.0 mm
01:10 AM 33.7°F0.9°C 30.8°F-0.7°C 89% Calm Calm -- 29.66 in1004.4 mb - 0.00 in0.0 mm 0.00 in0.0 mm
01:00 AM 33.6°F0.9°C 30.5°F-0.8°C 88% Calm Calm -- 29.66 in1004.4 mb - 0.00 in0.0 mm 0.00 in0.0 mm
12:50 AM 33.8°F1.0°C 30.6°F-0.8°C 88% Calm Calm -- 29.66 in1004.4 mb - 0.00 in0.0 mm 0.00 in0.0 mm
12:40 AM 33.6°F0.9°C 30.4°F-0.9°C 88% Calm Calm -- 29.66 in1004.4 mb - 0.00 in0.0 mm 0.00 in0.0 mm
12:30 AM 34.0°F1.1°C 30.8°F-0.7°C 88% Calm Calm -- 29.66 in1004.4 mb - 0.00 in0.0 mm 0.00 in0.0 mm
12:20 AM 34.2°F1.2°C 30.7°F-0.7°C 87% Calm Calm -- 29.66 in1004.4 mb - 0.00 in0.0 mm 0.00 in0.0 mm
12:10 AM 34.3°F1.3°C 30.8°F-0.7°C 87% Calm Calm -- 29.66 in1004.4 mb - 0.00 in0.0 mm 0.00 in0.0 mm
12:00 AM 34.4°F1.3°C 30.9°F-0.6°C 87% Calm Calm -- 29.67 in1004.7 mb - 0.00 in0.0 mm 0.00 in0.0 mm